Time;durP1;ratioP1;P1;durP2;ratioP2;P2;SDS_P1;SDS_P2;PMS_P1;PMS_P2;Temp;Humidity;BMP_temperature;BMP_pressure;BME280_temperature;BME280_humidity;BME280_pressure;Samples;Min_cycle;Max_cycle;Signal;HPM_P1;HPM_P2
2022/04/19 00:00:44;;;;;;;14.38;10.25;;;13.00;90.10;;;;;;5023899;28;20188;-69
2022/04/19 00:03:12;;;;;;;10.30;8.15;;;13.00;89.20;;;;;;5025711;28;20481;-69
2022/04/19 00:05:38;;;;;;;12.68;9.48;;;13.00;89.70;;;;;;5016267;28;20056;-68
2022/04/19 00:08:05;;;;;;;14.60;9.65;;;13.00;89.40;;;;;;5030706;28;20045;-68
2022/04/19 00:10:31;;;;;;;11.68;10.07;;;13.00;90.40;;;;;;5032636;28;20053;-68
2022/04/19 00:12:58;;;;;;;13.27;9.40;;;12.90;89.80;;;;;;5017832;28;20049;-68
2022/04/19 00:15:28;;;;;;;14.32;9.32;;;12.90;88.90;;;;;;5024580;28;20135;-68
2022/04/19 00:17:56;;;;;;;12.00;9.45;;;12.90;90.00;;;;;;5025826;28;20053;-68
2022/04/19 00:20:22;;;;;;;12.13;8.82;;;12.90;90.20;;;;;;5021175;28;20060;-68
2022/04/19 00:22:51;;;;;;;11.52;8.35;;;12.80;90.10;;;;;;5027821;28;20052;-68
2022/04/19 00:25:17;;;;;;;10.35;8.43;;;12.90;90.40;;;;;;5026728;28;20049;-68
2022/04/19 00:27:43;;;;;;;11.13;8.90;;;12.90;90.10;;;;;;5029087;28;20084;-68
2022/04/19 00:30:09;;;;;;;15.88;9.20;;;12.80;90.40;;;;;;5024295;28;20037;-68
2022/04/19 00:32:35;;;;;;;9.88;8.60;;;12.80;89.90;;;;;;5027857;28;20152;-68
2022/04/19 00:35:03;;;;;;;16.02;9.45;;;12.80;89.40;;;;;;5031265;28;20041;-69
2022/04/19 00:37:29;;;;;;;13.52;8.60;;;12.70;89.30;;;;;;5019817;28;20500;-69
2022/04/19 00:39:58;;;;;;;14.15;8.45;;;12.70;88.30;;;;;;5023424;28;20057;-69
2022/04/19 00:42:27;;;;;;;12.48;8.40;;;12.70;89.30;;;;;;5015824;28;20041;-69
2022/04/19 00:44:54;;;;;;;14.88;8.23;;;12.70;90.00;;;;;;5017471;28;20095;-67
2022/04/19 00:47:20;;;;;;;13.98;8.90;;;12.60;90.50;;;;;;5024238;28;20044;-67
2022/04/19 00:49:47;;;;;;;14.40;9.07;;;12.60;90.20;;;;;;5029639;28;20038;-67
2022/04/19 00:52:13;;;;;;;16.88;8.13;;;12.60;90.60;;;;;;5023834;28;20099;-66
2022/04/19 00:54:40;;;;;;;11.32;8.60;;;12.50;90.30;;;;;;5025286;28;20089;-68
2022/04/19 00:57:06;;;;;;;11.02;8.13;;;12.50;88.70;;;;;;5029554;28;20057;-66
2022/04/19 00:59:33;;;;;;;11.82;8.48;;;12.50;89.50;;;;;;5018747;28;20041;-67
2022/04/19 01:01:59;;;;;;;11.82;8.32;;;12.50;90.70;;;;;;5026256;28;20051;-66
2022/04/19 01:04:25;;;;;;;11.48;8.55;;;12.40;90.90;;;;;;5020686;28;20053;-66
2022/04/19 01:06:50;;;;;;;11.75;7.82;;;12.40;90.30;;;;;;5020921;28;20043;-66
2022/04/19 01:09:16;;;;;;;12.75;8.38;;;12.30;90.40;;;;;;5021130;28;20088;-67
2022/04/19 01:14:27;;;;;;;14.13;9.43;;;12.20;90.70;;;;;;5023031;28;20052;-67
2022/04/19 01:16:54;;;;;;;11.82;8.80;;;12.20;91.10;;;;;;5022855;28;20594;-67
2022/04/19 01:19:21;;;;;;;12.40;8.82;;;12.10;90.00;;;;;;5024526;28;20501;-68
2022/04/19 01:21:50;;;;;;;16.95;8.80;;;12.20;90.10;;;;;;5020413;28;20041;-68
2022/04/19 01:24:18;;;;;;;11.30;8.18;;;12.20;90.40;;;;;;5019400;28;20111;-67
2022/04/19 01:26:47;;;;;;;9.77;7.60;;;12.10;90.70;;;;;;5021194;28;20393;-68
2022/04/19 01:29:13;;;;;;;10.90;7.93;;;12.10;90.80;;;;;;5025906;28;20426;-68
2022/04/19 01:31:41;;;;;;;10.77;7.35;;;12.10;91.00;;;;;;5018627;28;20490;-68
2022/04/19 01:34:07;;;;;;;15.30;9.93;;;12.10;90.70;;;;;;5019716;28;20045;-68
2022/04/19 01:36:36;;;;;;;11.13;7.55;;;12.00;91.20;;;;;;5023337;28;20061;-68
2022/04/19 01:39:04;;;;;;;11.07;8.07;;;12.00;90.80;;;;;;5029971;28;20447;-68
2022/04/19 01:41:30;;;;;;;11.82;8.38;;;12.00;90.10;;;;;;5021190;28;20041;-68
2022/04/19 01:43:55;;;;;;;8.98;7.45;;;12.00;90.00;;;;;;5022647;28;20060;-68
2022/04/19 01:46:23;;;;;;;12.23;7.88;;;11.90;90.60;;;;;;5017994;28;20069;-68
2022/04/19 01:48:50;;;;;;;12.13;8.32;;;11.90;90.20;;;;;;5020696;28;20057;-68
2022/04/19 01:51:16;;;;;;;11.35;8.45;;;11.90;90.20;;;;;;5026251;28;20052;-69
2022/04/19 01:53:42;;;;;;;16.13;9.30;;;11.90;90.80;;;;;;5026235;28;20096;-68
2022/04/19 01:56:08;;;;;;;11.18;8.10;;;11.80;90.20;;;;;;5023416;28;20068;-68
2022/04/19 01:58:33;;;;;;;11.57;8.35;;;11.80;90.20;;;;;;5026969;28;20397;-68
2022/04/19 02:00:59;;;;;;;12.25;8.50;;;11.70;90.20;;;;;;5026693;28;20510;-68
2022/04/19 02:03:25;;;;;;;13.43;8.38;;;11.70;91.00;;;;;;5024854;28;20367;-69
2022/04/19 02:05:50;;;;;;;13.05;7.38;;;11.60;91.30;;;;;;5024918;28;20065;-69
2022/04/19 02:08:16;;;;;;;11.65;7.63;;;11.60;90.90;;;;;;5024722;28;20037;-68
2022/04/19 02:10:41;;;;;;;12.95;8.20;;;11.60;90.70;;;;;;5024098;28;20037;-69
2022/04/19 02:13:07;;;;;;;9.73;7.70;;;11.60;90.60;;;;;;5012004;28;20422;-69
2022/04/19 02:15:32;;;;;;;13.63;8.23;;;11.50;91.60;;;;;;5016059;28;20384;-68
2022/04/19 02:17:58;;;;;;;10.18;7.30;;;11.50;91.70;;;;;;5026822;28;20069;-68
2022/04/19 02:20:23;;;;;;;10.85;8.07;;;11.50;92.00;;;;;;5022618;28;20516;-69
2022/04/19 02:22:49;;;;;;;16.58;9.85;;;11.50;91.70;;;;;;5018984;28;20559;-69
2022/04/19 02:25:16;;;;;;;11.02;7.68;;;11.50;91.30;;;;;;5022702;28;20041;-68
2022/04/19 02:27:42;;;;;;;11.90;7.97;;;11.50;91.50;;;;;;5022051;28;20132;-68
2022/04/19 02:30:13;;;;;;;9.60;7.22;;;11.40;92.10;;;;;;5019660;28;20145;-68
2022/04/19 02:32:40;;;;;;;8.98;7.53;;;11.40;91.70;;;;;;5011776;28;20078;-68
2022/04/19 02:35:06;;;;;;;10.70;7.82;;;11.40;92.40;;;;;;5010957;28;20041;-68
2022/04/19 02:37:32;;;;;;;9.55;7.38;;;11.40;92.50;;;;;;5024408;28;20124;-67
2022/04/19 02:39:58;;;;;;;12.02;8.00;;;11.40;92.70;;;;;;5009484;28;20049;-68
2022/04/19 02:42:23;;;;;;;10.60;7.80;;;11.40;93.10;;;;;;5012265;28;20038;-67
2022/04/19 02:44:49;;;;;;;10.25;7.90;;;11.40;93.20;;;;;;5017147;28;20124;-68
2022/04/19 02:47:17;;;;;;;11.48;7.78;;;11.40;93.00;;;;;;5029683;28;20115;-68
2022/04/19 02:49:44;;;;;;;9.45;7.35;;;11.40;93.00;;;;;;5014112;28;20042;-68
2022/04/19 02:52:11;;;;;;;11.57;7.50;;;11.40;93.40;;;;;;5023662;28;20038;-68
2022/04/19 02:54:37;;;;;;;11.77;8.57;;;11.30;93.40;;;;;;5016070;28;20053;-68
2022/04/19 02:57:03;;;;;;;11.32;8.07;;;11.30;93.10;;;;;;5024329;28;20053;-67
2022/04/19 02:59:29;;;;;;;9.15;6.97;;;11.30;93.30;;;;;;5027663;28;20102;-67
2022/04/19 03:01:54;;;;;;;14.25;8.57;;;11.30;93.20;;;;;;5022710;28;20049;-67
2022/04/19 03:04:20;;;;;;;11.93;7.57;;;11.20;93.20;;;;;;5022080;28;20045;-67
2022/04/19 03:06:49;;;;;;;10.60;7.85;;;11.20;93.40;;;;;;5015081;28;20041;-67
2022/04/19 03:09:15;;;;;;;13.30;8.73;;;11.10;93.90;;;;;;5026580;28;20179;-68
2022/04/19 03:11:40;;;;;;;10.85;7.43;;;11.00;93.90;;;;;;5020851;28;21907;-68
2022/04/19 03:14:06;;;;;;;12.60;7.85;;;11.00;94.20;;;;;;5020336;28;20041;-68
2022/04/19 03:16:33;;;;;;;12.70;8.35;;;11.00;94.20;;;;;;5017692;28;20060;-68
2022/04/19 03:18:58;;;;;;;10.90;7.90;;;11.10;94.30;;;;;;5024067;28;20441;-68
2022/04/19 03:21:24;;;;;;;10.70;7.53;;;11.00;94.10;;;;;;5027794;28;20049;-68
2022/04/19 03:29:19;;;;;;;15.68;8.65;;;11.00;93.80;;;;;;5020120;28;20493;-68
2022/04/19 03:31:45;;;;;;;16.17;8.95;;;11.00;93.90;;;;;;5026161;28;20397;-68
2022/04/19 03:34:11;;;;;;;12.18;8.45;;;11.00;93.80;;;;;;5018216;28;20057;-69
2022/04/19 03:36:37;;;;;;;12.18;8.40;;;11.00;93.70;;;;;;5019146;28;20437;-68
2022/04/19 03:39:02;;;;;;;20.13;8.82;;;11.10;94.00;;;;;;5017191;28;20041;-69
2022/04/19 03:41:28;;;;;;;12.65;8.55;;;11.00;94.10;;;;;;5019360;28;20030;-68
2022/04/19 03:43:54;;;;;;;13.07;9.68;;;11.00;93.80;;;;;;5028966;28;20049;-68
2022/04/19 03:46:19;;;;;;;13.57;9.57;;;11.00;94.10;;;;;;5023017;28;20038;-70
2022/04/19 03:48:45;;;;;;;11.70;8.32;;;10.90;94.00;;;;;;5014356;28;20115;-69
2022/04/19 03:51:11;;;;;;;10.68;8.65;;;10.90;94.20;;;;;;5021919;28;20048;-69
2022/04/19 03:53:36;;;;;;;11.43;8.52;;;10.90;94.30;;;;;;5019368;28;20037;-68
2022/04/19 03:56:03;;;;;;;11.68;8.88;;;10.90;94.30;;;;;;5025427;28;20060;-68
2022/04/19 03:58:30;;;;;;;11.02;7.53;;;10.90;94.30;;;;;;5022710;28;20038;-69
2022/04/19 04:00:56;;;;;;;13.25;8.88;;;10.90;94.40;;;;;;5021398;28;20567;-68
2022/04/19 04:03:23;;;;;;;16.60;9.32;;;10.80;94.20;;;;;;5029277;28;20073;-68
2022/04/19 04:05:49;;;;;;;13.63;8.77;;;10.80;94.00;;;;;;5029286;28;20132;-68
2022/04/19 04:08:14;;;;;;;15.68;8.77;;;10.80;94.10;;;;;;5015480;28;20086;-68
2022/04/19 04:10:40;;;;;;;13.93;9.55;;;10.80;93.50;;;;;;5025815;28;20052;-68
2022/04/19 04:13:05;;;;;;;14.35;10.27;;;10.80;93.60;;;;;;5028263;28;20037;-68
2022/04/19 04:15:31;;;;;;;13.38;8.98;;;10.80;93.80;;;;;;5021845;28;20053;-67
2022/04/19 04:17:57;;;;;;;13.68;10.43;;;10.80;93.90;;;;;;5023073;28;20378;-68
2022/04/19 04:20:22;;;;;;;15.68;10.70;;;10.80;94.20;;;;;;5025595;28;20104;-68
2022/04/19 04:22:48;;;;;;;15.32;10.63;;;10.80;94.40;;;;;;5021394;28;20049;-69
2022/04/19 04:25:13;;;;;;;16.52;10.60;;;10.70;94.30;;;;;;5017467;28;20054;-69
2022/04/19 04:27:39;;;;;;;13.50;9.60;;;10.70;94.60;;;;;;5018087;28;20119;-69
2022/04/19 04:30:06;;;;;;;18.48;9.98;;;10.70;94.70;;;;;;5016327;28;20055;-68
2022/04/19 04:32:32;;;;;;;15.20;10.18;;;10.60;95.10;;;;;;5013134;28;20065;-68
2022/04/19 04:34:58;;;;;;;18.33;10.27;;;10.60;94.70;;;;;;5017251;28;20061;-67
2022/04/19 04:37:23;;;;;;;16.13;9.43;;;10.60;94.80;;;;;;5027643;28;20042;-68
2022/04/19 04:39:49;;;;;;;17.88;10.68;;;10.60;95.00;;;;;;5015443;28;20477;-69
2022/04/19 04:42:15;;;;;;;14.18;9.55;;;10.60;95.00;;;;;;5021206;28;20793;-68
2022/04/19 04:44:40;;;;;;;14.55;9.68;;;10.50;94.90;;;;;;5032016;28;20049;-69
2022/04/19 04:49:51;;;;;;;14.93;9.85;;;10.60;95.20;;;;;;5021613;28;20060;-69
2022/04/19 04:52:16;;;;;;;17.92;10.63;;;10.60;95.40;;;;;;5025847;28;20046;-69
2022/04/19 04:54:43;;;;;;;14.15;9.38;;;10.60;95.30;;;;;;5031349;28;20057;-69
2022/04/19 04:57:09;;;;;;;14.77;10.43;;;10.60;95.40;;;;;;5018645;28;20192;-68
2022/04/19 04:59:36;;;;;;;14.85;10.27;;;10.60;95.50;;;;;;5014289;28;20057;-68
2022/04/19 05:02:06;;;;;;;14.93;8.85;;;10.50;95.60;;;;;;5031888;28;20141;-68
2022/04/19 05:04:35;;;;;;;12.48;9.65;;;10.60;95.70;;;;;;5031163;28;20061;-68
2022/04/19 05:07:01;;;;;;;16.65;9.20;;;10.50;95.80;;;;;;5015548;28;20100;-68
2022/04/19 05:09:26;;;;;;;12.55;8.70;;;10.60;96.00;;;;;;5015438;28;20042;-68
2022/04/19 05:11:52;;;;;;;14.38;8.27;;;10.60;95.70;;;;;;5038104;28;20045;-68
2022/04/19 05:14:19;;;;;;;23.52;9.80;;;10.50;95.80;;;;;;5032619;28;20038;-68
2022/04/19 05:16:45;;;;;;;14.40;9.65;;;10.60;95.90;;;;;;5020477;28;20502;-69
2022/04/19 05:19:11;;;;;;;11.23;8.50;;;10.60;96.10;;;;;;5030268;28;20048;-69
2022/04/19 05:21:37;;;;;;;12.30;8.98;;;10.60;96.40;;;;;;5023453;28;20401;-69
2022/04/19 05:24:07;;;;;;;14.15;9.18;;;10.60;96.30;;;;;;5030268;28;20060;-69
2022/04/19 05:26:33;;;;;;;11.95;7.72;;;10.60;96.10;;;;;;5017490;28;20072;-69
2022/04/19 05:28:59;;;;;;;16.05;9.48;;;10.60;96.50;;;;;;5019057;28;20475;-69
2022/04/19 05:31:25;;;;;;;11.73;8.63;;;10.60;96.40;;;;;;5024039;28;20404;-70
2022/04/19 05:33:50;;;;;;;12.13;9.15;;;10.60;96.50;;;;;;5022440;28;20041;-70
2022/04/19 05:36:16;;;;;;;12.82;8.45;;;10.70;96.10;;;;;;5020585;28;20056;-70
2022/04/19 05:38:42;;;;;;;14.75;9.63;;;10.70;96.30;;;;;;5011164;28;20046;-70
2022/04/19 05:41:07;;;;;;;14.77;9.57;;;10.70;96.50;;;;;;5028151;28;20104;-70
2022/04/19 05:43:33;;;;;;;11.65;7.68;;;10.80;96.50;;;;;;5021266;28;20053;-70
2022/04/19 05:45:58;;;;;;;13.98;8.13;;;10.80;96.20;;;;;;5025294;28;20401;-70
2022/04/19 05:48:25;;;;;;;14.30;8.68;;;10.80;96.40;;;;;;5019139;28;20084;-70
2022/04/19 05:50:51;;;;;;;14.45;8.70;;;10.90;96.60;;;;;;5023587;28;20211;-70
2022/04/19 05:53:17;;;;;;;12.23;8.45;;;10.90;96.30;;;;;;5025550;28;20382;-70
2022/04/19 05:55:42;;;;;;;13.27;8.90;;;10.90;96.30;;;;;;5020265;28;20067;-70
2022/04/19 05:58:08;;;;;;;10.25;8.00;;;10.90;96.30;;;;;;5024241;28;20191;-70
2022/04/19 06:00:33;;;;;;;13.43;8.32;;;11.00;96.30;;;;;;5025104;28;20396;-70
2022/04/19 06:05:43;;;;;;;18.02;9.70;;;11.10;96.40;;;;;;5014280;28;20107;-70
2022/04/19 06:08:09;;;;;;;10.48;7.55;;;11.10;96.00;;;;;;5030960;28;20049;-71
2022/04/19 06:10:34;;;;;;;15.65;8.85;;;11.20;96.20;;;;;;5019987;28;20099;-70
2022/04/19 06:13:00;;;;;;;12.80;8.25;;;11.20;96.30;;;;;;5023726;28;20044;-71
2022/04/19 06:15:25;;;;;;;12.70;8.75;;;11.20;96.10;;;;;;5029813;28;20132;-70
2022/04/19 06:17:51;;;;;;;15.52;9.93;;;11.30;96.30;;;;;;5017112;28;20153;-70
2022/04/19 06:20:16;;;;;;;15.77;9.48;;;11.30;95.90;;;;;;5024967;28;20493;-71
2022/04/19 06:22:44;;;;;;;12.38;8.60;;;11.40;96.50;;;;;;5028083;28;20072;-71
2022/04/19 06:25:10;;;;;;;12.82;7.90;;;11.40;96.00;;;;;;5014967;28;20049;-71
2022/04/19 06:27:36;;;;;;;11.82;9.02;;;11.50;96.20;;;;;;5021474;28;20085;-72
2022/04/19 06:30:02;;;;;;;16.33;9.82;;;11.60;96.60;;;;;;5028532;28;20097;-72
2022/04/19 06:32:28;;;;;;;13.93;8.23;;;11.60;95.90;;;;;;5030376;28;20077;-72
2022/04/19 06:34:54;;;;;;;16.17;8.55;;;11.70;96.40;;;;;;5016246;28;20088;-72
2022/04/19 06:37:22;;;;;;;13.75;8.43;;;11.70;95.90;;;;;;5020392;28;20041;-71
2022/04/19 06:39:47;;;;;;;13.60;8.93;;;11.80;95.80;;;;;;5020245;28;20042;-71
2022/04/19 06:42:13;;;;;;;15.05;8.95;;;11.90;95.80;;;;;;5016643;28;20112;-71
2022/04/19 06:44:39;;;;;;;14.88;8.57;;;12.00;95.90;;;;;;5016191;28;20064;-71
2022/04/19 06:47:05;;;;;;;12.05;7.70;;;12.10;96.10;;;;;;5022845;28;20029;-71
2022/04/19 06:49:30;;;;;;;11.88;8.00;;;12.20;95.80;;;;;;5009419;28;20064;-72
2022/04/19 06:51:56;;;;;;;13.32;8.73;;;12.30;95.70;;;;;;5011025;28;20389;-71
2022/04/19 06:54:21;;;;;;;13.48;7.72;;;12.40;95.90;;;;;;5010254;28;20127;-71
2022/04/19 06:56:47;;;;;;;12.73;8.00;;;12.50;95.90;;;;;;5014152;28;20473;-71
2022/04/19 06:59:13;;;;;;;15.27;8.10;;;12.60;96.30;;;;;;5010512;28;20162;-71
2022/04/19 07:01:40;;;;;;;12.73;7.57;;;12.60;96.50;;;;;;5010638;28;20056;-71
2022/04/19 07:04:08;;;;;;;16.27;8.10;;;12.70;96.10;;;;;;5015649;28;20054;-71
2022/04/19 07:06:34;;;;;;;15.98;9.18;;;12.80;96.10;;;;;;5015599;28;20044;-71
2022/04/19 07:09:00;;;;;;;9.40;6.82;;;12.80;95.90;;;;;;5029714;28;20355;-71
2022/04/19 07:11:25;;;;;;;14.43;8.55;;;12.80;96.80;;;;;;5016873;28;20057;-71
2022/04/19 07:13:51;;;;;;;11.48;7.40;;;13.00;96.40;;;;;;5022338;28;20049;-71
2022/04/19 07:16:17;;;;;;;12.38;8.30;;;13.10;96.30;;;;;;5024976;28;20030;-71
2022/04/19 07:18:42;;;;;;;12.70;8.63;;;13.10;95.80;;;;;;5031850;28;20045;-71
2022/04/19 07:26:45;;;;;;;11.40;8.07;;;13.30;95.50;;;;;;5024560;28;20057;-71
2022/04/19 07:29:12;;;;;;;16.27;9.02;;;13.40;95.50;;;;;;5036763;28;20120;-71
2022/04/19 07:31:38;;;;;;;13.43;9.45;;;13.40;95.20;;;;;;5024788;28;20041;-71
2022/04/19 07:34:04;;;;;;;11.57;8.57;;;13.50;94.90;;;;;;5034712;28;20491;-71
2022/04/19 07:36:29;;;;;;;14.35;7.85;;;13.50;94.20;;;;;;5029845;28;20136;-71
2022/04/19 07:38:57;;;;;;;12.25;8.60;;;13.60;94.50;;;;;;5022373;28;20060;-71
2022/04/19 07:41:23;;;;;;;12.65;8.48;;;13.70;94.30;;;;;;5031388;28;20120;-72
2022/04/19 07:43:49;;;;;;;17.52;8.57;;;13.70;93.90;;;;;;5030529;28;20029;-71
2022/04/19 07:46:18;;;;;;;12.05;8.20;;;13.70;94.00;;;;;;5024668;28;20033;-71
2022/04/19 07:48:44;;;;;;;13.25;8.32;;;13.70;94.10;;;;;;5027423;28;20058;-72
2022/04/19 07:51:11;;;;;;;22.48;9.32;;;13.80;94.90;;;;;;5025324;28;20045;-71
2022/04/19 07:53:36;;;;;;;9.82;6.88;;;13.90;94.50;;;;;;5023025;28;20053;-71
2022/04/19 07:56:02;;;;;;;9.88;7.68;;;14.10;94.40;;;;;;5026252;28;20064;-71
2022/04/19 07:58:28;;;;;;;13.20;8.63;;;14.00;94.30;;;;;;5028664;28;20123;-71
2022/04/19 08:00:54;;;;;;;10.55;7.50;;;14.10;94.30;;;;;;5026463;28;20037;-72
2022/04/19 08:03:19;;;;;;;11.40;7.78;;;14.20;94.70;;;;;;5018983;28;20068;-72
2022/04/19 08:05:45;;;;;;;11.68;7.90;;;14.30;94.50;;;;;;5023969;28;20838;-72
2022/04/19 08:08:11;;;;;;;12.75;7.75;;;14.40;94.30;;;;;;5025584;28;20057;-72
2022/04/19 08:10:36;;;;;;;14.50;8.02;;;14.30;93.70;;;;;;5027272;28;20448;-72
2022/04/19 08:13:04;;;;;;;8.00;6.45;;;14.40;93.40;;;;;;5035751;28;20413;-72
2022/04/19 08:15:32;;;;;;;15.93;8.60;;;14.50;94.10;;;;;;5021034;28;20053;-72
2022/04/19 08:17:58;;;;;;;16.92;8.85;;;14.50;93.10;;;;;;5023729;28;20091;-72
2022/04/19 08:20:24;;;;;;;15.23;8.05;;;14.50;93.40;;;;;;5020801;28;20475;-72
2022/04/19 08:22:50;;;;;;;13.75;7.68;;;14.50;93.60;;;;;;5017718;28;20048;-72
2022/04/19 08:25:16;;;;;;;11.75;7.80;;;14.60;93.60;;;;;;5033701;28;20045;-72
2022/04/19 08:27:46;;;;;;;10.98;7.03;;;14.80;94.00;;;;;;5031005;28;20477;-72
2022/04/19 08:30:12;;;;;;;12.65;8.07;;;15.00;93.80;;;;;;5017101;28;20136;-72
2022/04/19 08:32:38;;;;;;;11.95;8.05;;;15.00;93.30;;;;;;5021824;28;20041;-72
2022/04/19 08:35:05;;;;;;;12.20;7.63;;;15.10;93.40;;;;;;5025358;28;20055;-72
2022/04/19 08:37:32;;;;;;;11.32;6.75;;;15.20;93.40;;;;;;5027245;28;20069;-72
2022/04/19 08:39:57;;;;;;;12.43;7.30;;;15.90;92.90;;;;;;5015879;28;20069;-72
2022/04/19 08:42:23;;;;;;;9.90;7.07;;;16.50;91.20;;;;;;5020229;28;20113;-72
2022/04/19 08:44:48;;;;;;;11.27;6.68;;;17.00;91.20;;;;;;5024705;28;20049;-72
2022/04/19 08:47:14;;;;;;;9.25;5.95;;;17.70;90.60;;;;;;5016751;28;20042;-72
2022/04/19 08:49:42;;;;;;;7.78;5.32;;;18.20;88.90;;;;;;5023014;28;20053;-72
2022/04/19 08:52:08;;;;;;;8.13;5.78;;;18.40;87.60;;;;;;5018381;28;20049;-72
2022/04/19 08:57:31;;;;;;;7.90;5.50;;;19.10;85.70;;;;;;5020957;28;20049;-72
2022/04/19 08:59:57;;;;;;;11.88;5.00;;;19.30;85.50;;;;;;5018036;28;20045;-72
2022/04/19 09:02:29;;;;;;;11.27;5.40;;;19.20;85.20;;;;;;5016445;28;20046;-72
2022/04/19 09:05:14;;;;;;;9.00;5.07;;;19.40;82.80;;;;;;5026671;28;20045;-72
2022/04/19 09:07:41;;;;;;;7.63;4.40;;;19.80;82.20;;;;;;5026095;28;20103;-72
2022/04/19 09:10:11;;;;;;;11.15;4.55;;;20.20;83.30;;;;;;5027353;28;20037;-72
2022/04/19 09:12:37;;;;;;;13.80;5.63;;;20.30;82.50;;;;;;5019690;28;20059;-72
2022/04/19 09:15:06;;;;;;;11.90;4.60;;;20.60;82.00;;;;;;5021188;28;20485;-71
2022/04/19 09:17:36;;;;;;;12.68;5.45;;;20.50;79.50;;;;;;5019328;28;20088;-68
2022/04/19 09:20:18;;;;;;;6.35;3.92;;;20.30;79.40;;;;;;5013253;28;20049;-71
2022/04/19 09:22:45;;;;;;;6.45;4.38;;;20.70;79.70;;;;;;4995277;28;20404;-68
2022/04/19 09:25:14;;;;;;;9.05;4.35;;;20.60;80.10;;;;;;4915444;28;20532;-68
2022/04/19 09:27:40;;;;;;;10.38;5.88;;;21.20;77.70;;;;;;4886618;28;20054;-68
2022/04/19 09:30:37;;;;;;;7.68;5.30;;;21.30;78.90;;;;;;4931967;28;66875;-67
2022/04/19 09:33:04;;;;;;;7.13;4.68;;;21.40;77.70;;;;;;4976955;28;20116;-71
2022/04/19 09:35:33;;;;;;;10.95;4.22;;;21.30;76.40;;;;;;5004698;28;20030;-70
2022/04/19 09:37:59;;;;;;;8.20;4.35;;;21.60;76.20;;;;;;5010074;28;20118;-71
2022/04/19 09:40:36;;;;;;;7.45;4.72;;;21.50;74.90;;;;;;5003622;28;20068;-71
2022/04/19 09:43:16;;;;;;;7.97;5.38;;;22.10;75.90;;;;;;5007506;28;20548;-70
2022/04/19 09:45:59;;;;;;;9.20;4.30;;;22.00;74.10;;;;;;5002976;28;20046;-70
2022/04/19 09:48:28;;;;;;;6.60;3.90;;;21.90;74.00;;;;;;5003096;28;20041;-71
2022/04/19 09:51:13;;;;;;;6.63;3.75;;;22.00;74.70;;;;;;5011276;28;20050;-70
2022/04/19 09:53:43;;;;;;;4.68;3.75;;;22.10;72.40;;;;;;5005789;28;20097;-71
2022/04/19 09:56:13;;;;;;;5.35;3.42;;;22.20;72.80;;;;;;5009516;28;20076;-70
2022/04/19 09:58:41;;;;;;;6.65;3.90;;;22.20;72.70;;;;;;5035116;28;20057;-70
2022/04/19 10:01:06;;;;;;;4.97;3.33;;;22.00;74.50;;;;;;5015113;28;20045;-70
2022/04/19 10:09:04;;;;;;;6.00;3.80;;;22.00;72.70;;;;;;5011240;28;20106;-70
2022/04/19 10:11:31;;;;;;;5.25;3.28;;;22.10;72.60;;;;;;5010378;28;20129;-70
2022/04/19 10:13:57;;;;;;;4.15;2.63;;;22.40;72.90;;;;;;4999911;28;20038;-70
2022/04/19 10:16:24;;;;;;;3.85;2.40;;;22.50;71.70;;;;;;5009536;28;20053;-70
2022/04/19 10:18:49;;;;;;;3.22;1.90;;;22.40;72.30;;;;;;5010685;28;20042;-70
2022/04/19 10:21:23;;;;;;;2.33;1.20;;;22.10;70.70;;;;;;5010682;28;20054;-70
2022/04/19 10:23:48;;;;;;;;;;;22.20;71.00;;;;;;5011713;28;20038;-70
2022/04/19 10:26:19;;;;;;;4.32;1.83;;;22.10;71.40;;;;;;5010095;28;19944;-70
2022/04/19 10:28:47;;;;;;;4.70;1.58;;;22.10;71.40;;;;;;4995997;28;20045;-70
2022/04/19 10:31:23;;;;;;;4.60;1.80;;;22.20;68.70;;;;;;5009379;28;20750;-70
2022/04/19 10:33:52;;;;;;;2.47;1.52;;;22.00;68.90;;;;;;5009641;28;20038;-70
2022/04/19 10:36:21;;;;;;;2.83;1.10;;;21.90;70.70;;;;;;5002647;28;20104;-67
2022/04/19 10:39:16;;;;;;;2.28;1.10;;;21.80;69.70;;;;;;5004735;28;20054;-70
2022/04/19 10:41:55;;;;;;;2.45;1.73;;;21.70;66.40;;;;;;5008078;28;20049;-69
2022/04/19 10:44:26;;;;;;;5.38;1.40;;;21.50;67.60;;;;;;5010189;28;20049;-70
2022/04/19 10:47:05;;;;;;;3.60;1.38;;;21.20;68.80;;;;;;5009847;28;20030;-69
2022/04/19 10:49:31;;;;;;;4.10;1.88;;;21.20;68.20;;;;;;5004999;28;20137;-70
2022/04/19 10:52:00;;;;;;;1.95;1.10;;;21.10;68.10;;;;;;5008396;28;20128;-70
2022/04/19 10:55:03;;;;;;;1.98;0.93;;;21.10;66.30;;;;;;5009041;28;20096;-70
2022/04/19 11:00:33;;;;;;;;;;;21.40;65.30;;;;;;4997706;28;20417;-69
2022/04/19 11:03:11;;;;;;;3.03;0.93;;;21.60;67.80;;;;;;5004473;28;19978;-69
2022/04/19 11:05:43;;;;;;;3.10;0.80;;;21.80;66.30;;;;;;5011603;28;20413;-70
2022/04/19 11:08:24;;;;;;;1.58;1.05;;;21.70;66.60;;;;;;5007514;28;20176;-69
2022/04/19 11:11:03;;;;;;;1.42;1.02;;;21.60;65.00;;;;;;5009883;28;20103;-70
2022/04/19 11:13:31;;;;;;;1.25;0.80;;;21.70;68.50;;;;;;5010398;28;20046;-69
2022/04/19 11:16:05;;;;;;;2.97;1.02;;;21.80;66.90;;;;;;5008240;28;20049;-69
2022/04/19 11:18:53;;;;;;;3.78;1.27;;;21.90;66.90;;;;;;5007517;28;20061;-69
2022/04/19 11:21:48;;;;;;;4.43;1.67;;;22.20;67.30;;;;;;5006795;28;20448;-69
2022/04/19 11:24:33;;;;;;;3.95;1.85;;;22.20;67.80;;;;;;5006511;28;20045;-70
2022/04/19 11:26:59;;;;;;;2.97;1.30;;;22.10;67.50;;;;;;5006324;28;20078;-68
2022/04/19 11:29:24;;;;;;;3.92;1.25;;;21.90;68.10;;;;;;5009571;28;20092;-68
2022/04/19 11:31:50;;;;;;;4.97;1.33;;;22.20;67.80;;;;;;5007298;28;20397;-67
2022/04/19 11:34:16;;;;;;;2.90;1.52;;;22.10;67.10;;;;;;5015773;28;20053;-67
2022/04/19 11:36:43;;;;;;;6.10;1.83;;;22.20;68.10;;;;;;5011325;28;20042;-67
2022/04/19 11:46:43;;;;;;;4.80;1.90;;;22.30;69.30;;;;;;5007311;28;20045;-67
2022/04/19 11:47:48;;;;;;;3.28;1.50;;;22.40;69.30;;;;;;5009467;28;20059;-68
2022/04/19 11:50:27;;;;;;;5.75;1.63;;;22.50;71.50;;;;;;5006863;28;20052;-67
2022/04/19 11:52:53;;;;;;;6.50;1.42;;;22.70;66.90;;;;;;5004932;28;20035;-67
2022/04/19 11:55:23;;;;;;;2.58;1.42;;;22.70;69.60;;;;;;4989622;28;20058;-67
2022/04/19 11:58:04;;;;;;;3.40;1.48;;;22.80;69.90;;;;;;5011393;28;20042;-67
2022/04/19 12:00:29;;;;;;;1.90;1.15;;;22.50;68.80;;;;;;5010354;28;20482;-67
2022/04/19 12:02:55;;;;;;;5.45;1.30;;;22.70;67.90;;;;;;5011267;28;20046;-67
2022/04/19 12:05:25;;;;;;;2.80;1.20;;;22.40;66.60;;;;;;5011011;28;20396;-67
2022/04/19 12:07:52;;;;;;;1.45;1.10;;;22.50;67.40;;;;;;5012816;28;20049;-67
2022/04/19 12:10:19;;;;;;;1.58;1.08;;;22.50;66.80;;;;;;5013304;28;20092;-67
2022/04/19 12:12:46;;;;;;;3.70;1.27;;;22.50;68.10;;;;;;5010840;28;20489;-67
2022/04/19 12:15:11;;;;;;;4.13;1.58;;;22.90;69.40;;;;;;5011423;28;20052;-68
2022/04/19 12:17:46;;;;;;;3.33;1.70;;;22.80;67.80;;;;;;5013455;28;20393;-68
2022/04/19 12:20:11;;;;;;;3.05;1.73;;;23.00;69.50;;;;;;5013624;28;20148;-68
2022/04/19 12:22:37;;;;;;;3.38;1.52;;;23.00;68.50;;;;;;5010305;28;20533;-68
2022/04/19 12:25:04;;;;;;;3.80;1.08;;;23.00;69.70;;;;;;5004972;28;20044;-67
2022/04/19 12:27:37;;;;;;;5.88;1.80;;;23.20;67.90;;;;;;5009392;28;20041;-67
2022/04/19 12:30:14;;;;;;;2.83;1.45;;;23.00;68.30;;;;;;5008700;28;20038;-68
2022/04/19 12:32:54;;;;;;;2.78;1.27;;;23.20;68.50;;;;;;5012582;28;20453;-69
2022/04/19 12:35:25;;;;;;;4.32;1.40;;;23.60;68.30;;;;;;5011204;28;20517;-68
2022/04/19 12:38:08;;;;;;;2.25;1.20;;;23.30;69.90;;;;;;5012980;28;20120;-68
2022/04/19 12:40:34;;;;;;;3.90;1.73;;;23.70;66.20;;;;;;5010944;28;20054;-68
2022/04/19 12:43:00;;;;;;;10.68;1.80;;;23.70;68.60;;;;;;5010296;28;20042;-68
2022/04/19 12:45:31;;;;;;;3.35;1.40;;;23.50;67.60;;;;;;5010339;28;20049;-68
2022/04/19 12:48:00;;;;;;;2.47;1.30;;;23.80;69.00;;;;;;5011871;28;20468;-68
2022/04/19 12:50:27;;;;;;;4.55;1.80;;;23.80;68.00;;;;;;5011653;28;20046;-67
2022/04/19 12:52:53;;;;;;;2.50;1.50;;;24.00;67.50;;;;;;5011882;28;20089;-68
2022/04/19 12:55:28;;;;;;;5.22;1.60;;;24.00;68.40;;;;;;5012126;28;20094;-68
2022/04/19 12:58:07;;;;;;;6.57;1.67;;;23.60;64.40;;;;;;5010896;28;20494;-68
2022/04/19 13:00:33;;;;;;;3.45;1.85;;;23.50;66.00;;;;;;5012611;28;20053;-67
2022/04/19 13:02:59;;;;;;;5.90;2.22;;;23.60;68.10;;;;;;5010888;28;20504;-68
2022/04/19 13:12:16;;;;;;;8.50;2.28;;;23.90;68.80;;;;;;5029490;28;20046;-68
2022/04/19 13:13:38;;;;;;;3.88;2.10;;;24.10;66.50;;;;;;5010840;28;20638;-68
2022/04/19 13:16:04;;;;;;;4.20;1.90;;;24.00;68.50;;;;;;5011680;28;20041;-67
2022/04/19 13:18:30;;;;;;;4.07;1.50;;;24.30;67.30;;;;;;5011409;28;20402;-68
2022/04/19 13:20:55;;;;;;;5.45;2.00;;;24.20;65.90;;;;;;5011988;28;20049;-68
2022/04/19 13:23:21;;;;;;;2.53;1.65;;;24.40;67.30;;;;;;5009124;28;20057;-68
2022/04/19 13:25:46;;;;;;;3.22;1.98;;;24.20;66.90;;;;;;5011628;28;20543;-68